Time,TemperatureF,DewpointF,PressureIn,WindDirection,WindDirectionDegrees,WindSpeedMPH,WindSpeedGustMPH,Humidity,HourlyPrecipIn,Conditions,Clouds,dailyrainin,SoftwareType,DateUTC
2013-01-09 00:00:00,31.8,23.2,30.36,NW,315,0.4,1.8,70,0.00,,,0.00,WUHU216HW,2013-01-09 05:00:00,
2013-01-09 00:02:00,31.8,23.2,30.36,NW,315,0.0,1.8,70,0.00,,,0.00,WUHU216HW,2013-01-09 05:02:00,
2013-01-09 00:03:00,31.6,23.0,30.37,WNW,293,0.0,1.8,70,0.00,,,0.00,WUHU216HW,2013-01-09 05:03:00,
2013-01-09 00:08:00,31.6,23.0,30.37,North,0,0.0,1.8,70,0.00,,,0.00,WUHU216HW,2013-01-09 05:08:00,
2013-01-09 00:13:00,31.3,22.7,30.37,NW,315,0.0,0.7,70,0.00,,,0.00,WUHU216HW,2013-01-09 05:13:00,
2013-01-09 00:18:00,31.1,22.5,30.37,WNW,293,0.0,0.7,70,0.00,,,0.00,WUHU216HW,2013-01-09 05:18:00,
2013-01-09 00:23:00,30.9,22.3,30.37,WNW,293,0.0,0.2,70,0.00,,,0.00,WUHU216HW,2013-01-09 05:23:00,
2013-01-09 00:28:00,30.7,22.1,30.37,WNW,293,0.2,0.4,70,0.00,,,0.00,WUHU216HW,2013-01-09 05:28:00,
2013-01-09 00:33:00,30.5,21.9,30.37,NW,315,0.7,0.9,70,0.00,,,0.00,WUHU216HW,2013-01-09 05:33:00,
2013-01-09 00:38:00,30.5,22.3,30.37,WNW,293,1.3,1.3,71,0.00,,,0.00,WUHU216HW,2013-01-09 05:38:00,
2013-01-09 00:43:00,30.4,22.5,30.37,West,270,0.7,1.3,72,0.00,,,0.00,WUHU216HW,2013-01-09 05:43:00,
2013-01-09 00:48:00,30.4,22.8,30.37,WNW,293,1.1,1.6,73,0.00,,,0.00,WUHU216HW,2013-01-09 05:48:00,
2013-01-09 00:53:00,30.2,22.6,30.37,WNW,293,0.4,2.0,73,0.00,,,0.00,WUHU216HW,2013-01-09 05:53:00,
2013-01-09 00:58:00,30.2,22.6,30.36,WNW,293,1.1,2.0,73,0.00,,,0.00,WUHU216HW,2013-01-09 05:58:00,
2013-01-09 01:03:00,30.0,22.1,30.36,WNW,293,0.9,1.1,72,0.00,,,0.00,WUHU216HW,2013-01-09 06:03:00,
2013-01-09 01:08:00,30.0,22.1,30.36,WNW,293,0.7,1.6,72,0.00,,,0.00,WUHU216HW,2013-01-09 06:08:00,
2013-01-09 01:13:00,29.8,21.9,30.37,West,270,0.9,1.6,72,0.00,,,0.00,WUHU216HW,2013-01-09 06:13:00,
2013-01-09 01:18:00,29.6,22.4,30.37,WNW,293,1.3,1.8,74,0.00,,,0.00,WUHU216HW,2013-01-09 06:18:00,
2013-01-09 01:23:00,29.5,22.3,30.37,WNW,293,1.3,1.8,74,0.00,,,0.00,WUHU216HW,2013-01-09 06:23:00,
2013-01-09 01:28:00,29.5,22.3,30.37,WNW,293,1.1,1.6,74,0.00,,,0.00,WUHU216HW,2013-01-09 06:28:00,
2013-01-09 01:33:00,29.3,22.1,30.37,NNW,338,0.4,1.8,74,0.00,,,0.00,WUHU216HW,2013-01-09 06:33:00,
2013-01-09 01:38:00,29.1,22.2,30.37,NNW,338,0.4,1.8,75,0.00,,,0.00,WUHU216HW,2013-01-09 06:38:00,
2013-01-09 01:43:00,28.9,22.0,30.37,NW,315,0.7,1.1,75,0.00,,,0.00,WUHU216HW,2013-01-09 06:43:00,
2013-01-09 01:48:00,28.9,22.0,30.37,West,270,0.4,1.6,75,0.00,,,0.00,WUHU216HW,2013-01-09 06:48:00,
2013-01-09 01:53:00,28.9,22.3,30.37,WNW,293,2.0,2.0,76,0.00,,,0.00,WUHU216HW,2013-01-09 06:53:00,
2013-01-09 01:58:00,28.9,22.3,30.37,NW,315,2.5,2.9,76,0.00,,,0.00,WUHU216HW,2013-01-09 06:58:00,
2013-01-09 02:03:00,28.9,22.3,30.37,WNW,293,2.5,3.1,76,0.00,,,0.00,WUHU216HW,2013-01-09 07:03:00,
2013-01-09 02:08:00,28.9,22.0,30.37,NW,315,2.2,3.4,75,0.00,,,0.00,WUHU216HW,2013-01-09 07:08:00,
2013-01-09 02:13:00,28.9,22.3,30.37,NNW,338,2.5,3.6,76,0.00,,,0.00,WUHU216HW,2013-01-09 07:13:00,
2013-01-09 02:18:00,28.7,22.1,30.37,WNW,293,1.3,3.6,76,0.00,,,0.00,WUHU216HW,2013-01-09 07:18:00,
2013-01-09 02:23:00,28.4,21.8,30.37,NNE,23,1.1,2.7,76,0.00,,,0.00,WUHU216HW,2013-01-09 07:23:00,
2013-01-09 02:28:00,28.4,21.8,30.37,NW,315,3.4,3.8,76,0.00,,,0.00,WUHU216HW,2013-01-09 07:28:00,
2013-01-09 02:33:00,28.2,21.6,30.37,NW,315,1.8,3.8,76,0.00,,,0.00,WUHU216HW,2013-01-09 07:33:00,
2013-01-09 02:38:00,28.4,21.8,30.37,NW,315,3.4,3.4,76,0.00,,,0.00,WUHU216HW,2013-01-09 07:38:00,
2013-01-09 02:43:00,28.4,21.8,30.37,WNW,293,2.7,4.0,76,0.00,,,0.00,WUHU216HW,2013-01-09 07:43:00,
2013-01-09 02:48:00,28.2,21.6,30.37,NNW,338,0.9,4.0,76,0.00,,,0.00,WUHU216HW,2013-01-09 07:48:00,
2013-01-09 02:53:00,28.2,21.6,30.37,NW,315,2.5,3.1,76,0.00,,,0.00,WUHU216HW,2013-01-09 07:53:00,
2013-01-09 02:58:00,28.2,21.6,30.36,NW,315,0.0,3.6,76,0.00,,,0.00,WUHU216HW,2013-01-09 07:58:00,
2013-01-09 03:03:00,28.2,21.6,30.36,WNW,293,0.4,3.6,76,0.00,,,0.00,WUHU216HW,2013-01-09 08:03:00,
2013-01-09 03:08:00,28.0,21.4,30.36,NW,315,2.0,2.2,76,0.00,,,0.00,WUHU216HW,2013-01-09 08:08:00,
2013-01-09 03:13:00,28.0,21.4,30.36,NW,315,1.1,3.1,76,0.00,,,0.00,WUHU216HW,2013-01-09 08:13:00,
2013-01-09 03:18:00,28.0,21.4,30.37,West,270,1.8,3.4,76,0.00,,,0.00,WUHU216HW,2013-01-09 08:18:00,
2013-01-09 03:23:00,27.8,21.2,30.36,NW,315,0.9,3.4,76,0.00,,,0.00,WUHU216HW,2013-01-09 08:23:00,
2013-01-09 03:28:00,27.8,21.6,30.36,NNW,338,2.2,3.4,77,0.00,,,0.00,WUHU216HW,2013-01-09 08:28:00,
2013-01-09 03:33:00,27.7,21.5,30.36,West,270,2.0,3.1,77,0.00,,,0.00,WUHU216HW,2013-01-09 08:33:00,
2013-01-09 03:38:00,27.5,21.3,30.36,NW,315,1.8,2.9,77,0.00,,,0.00,WUHU216HW,2013-01-09 08:38:00,
2013-01-09 03:43:00,27.5,21.3,30.36,West,270,1.8,2.5,77,0.00,,,0.00,WUHU216HW,2013-01-09 08:43:00,
2013-01-09 03:48:00,27.7,21.8,30.36,WNW,293,1.6,2.2,78,0.00,,,0.00,WUHU216HW,2013-01-09 08:48:00,
2013-01-09 03:53:00,27.8,21.6,30.36,WNW,293,0.9,2.2,77,0.00,,,0.00,WUHU216HW,2013-01-09 08:53:00,
2013-01-09 03:58:00,27.8,21.6,30.36,West,270,1.6,2.0,77,0.00,,,0.00,WUHU216HW,2013-01-09 08:58:00,
2013-01-09 04:03:00,27.8,21.6,30.36,West,270,1.8,2.0,77,0.00,,,0.00,WUHU216HW,2013-01-09 09:03:00,
2013-01-09 04:08:00,28.0,21.7,30.36,WNW,293,0.7,2.2,77,0.00,,,0.00,WUHU216HW,2013-01-09 09:08:00,
2013-01-09 04:13:00,28.0,22.0,30.36,West,270,1.8,2.2,78,0.00,,,0.00,WUHU216HW,2013-01-09 09:13:00,
2013-01-09 04:18:00,27.8,21.6,30.36,WNW,293,1.3,2.2,77,0.00,,,0.00,WUHU216HW,2013-01-09 09:18:00,
2013-01-09 04:23:00,27.8,21.6,30.36,NNW,338,1.6,1.8,77,0.00,,,0.00,WUHU216HW,2013-01-09 09:23:00,
2013-01-09 04:28:00,27.7,21.2,30.35,NW,315,0.2,2.2,76,0.00,,,0.00,WUHU216HW,2013-01-09 09:28:00,
2013-01-09 04:33:00,27.7,21.2,30.35,NW,315,0.7,2.2,76,0.00,,,0.00,WUHU216HW,2013-01-09 09:33:00,
2013-01-09 04:38:00,27.5,21.0,30.35,NW,315,1.8,1.8,76,0.00,,,0.00,WUHU216HW,2013-01-09 09:38:00,
2013-01-09 04:43:00,27.3,20.5,30.36,WNW,293,1.8,2.0,75,0.00,,,0.00,WUHU216HW,2013-01-09 09:43:00,
2013-01-09 04:48:00,27.1,20.3,30.35,NW,315,0.4,2.0,75,0.00,,,0.00,WUHU216HW,2013-01-09 09:48:00,
2013-01-09 04:53:00,27.1,20.3,30.34,NW,315,1.8,2.0,75,0.00,,,0.00,WUHU216HW,2013-01-09 09:53:00,
2013-01-09 04:58:00,26.9,20.1,30.35,NW,315,1.8,2.2,75,0.00,,,0.00,WUHU216HW,2013-01-09 09:58:00,
2013-01-09 05:03:00,26.8,20.0,30.36,NW,315,1.1,2.5,75,0.00,,,0.00,WUHU216HW,2013-01-09 10:03:00,
2013-01-09 05:08:00,26.8,20.6,30.37,WNW,293,1.8,2.7,77,0.00,,,0.00,WUHU216HW,2013-01-09 10:08:00,
2013-01-09 05:13:00,26.6,20.4,30.36,WNW,293,1.8,2.7,77,0.00,,,0.00,WUHU216HW,2013-01-09 10:13:00,
2013-01-09 05:18:00,26.6,20.1,30.36,WNW,293,1.8,2.7,76,0.00,,,0.00,WUHU216HW,2013-01-09 10:18:00,
2013-01-09 05:23:00,26.4,20.2,30.36,West,270,1.1,2.5,77,0.00,,,0.00,WUHU216HW,2013-01-09 10:23:00,
2013-01-09 05:28:00,26.2,20.0,30.36,WNW,293,1.8,2.5,77,0.00,,,0.00,WUHU216HW,2013-01-09 10:28:00,
2013-01-09 05:33:00,26.0,19.8,30.36,WNW,293,0.7,2.5,77,0.00,,,0.00,WUHU216HW,2013-01-09 10:33:00,
2013-01-09 05:38:00,26.0,19.8,30.36,NW,315,1.6,2.2,77,0.00,,,0.00,WUHU216HW,2013-01-09 10:38:00,
2013-01-09 05:43:00,26.0,19.8,30.36,WNW,293,1.3,1.8,77,0.00,,,0.00,WUHU216HW,2013-01-09 10:43:00,
2013-01-09 05:48:00,26.0,20.1,30.36,WNW,293,1.1,1.8,78,0.00,,,0.00,WUHU216HW,2013-01-09 10:48:00,
2013-01-09 05:53:00,26.0,20.4,30.36,NW,315,1.8,1.8,79,0.00,,,0.00,WUHU216HW,2013-01-09 10:53:00,
2013-01-09 05:58:00,26.0,20.1,30.36,WNW,293,2.5,3.1,78,0.00,,,0.00,WUHU216HW,2013-01-09 10:58:00,
2013-01-09 06:03:00,26.0,20.1,30.37,West,270,1.3,3.1,78,0.00,,,0.00,WUHU216HW,2013-01-09 11:03:00,
2013-01-09 06:08:00,26.3,20.4,30.37,WNW,293,2.2,2.5,78,0.00,,,0.00,WUHU216HW,2013-01-09 11:08:00,
2013-01-09 06:13:00,26.3,20.4,30.37,NNW,338,0.9,3.6,78,0.00,,,0.00,WUHU216HW,2013-01-09 11:13:00,
2013-01-09 06:18:00,26.1,20.5,30.37,WNW,293,3.8,4.5,79,0.00,,,0.00,WUHU216HW,2013-01-09 11:18:00,
2013-01-09 06:23:00,26.2,20.6,30.38,NW,315,1.8,4.5,79,0.00,,,0.00,WUHU216HW,2013-01-09 11:23:00,
2013-01-09 06:28:00,26.1,20.5,30.37,WNW,293,2.9,4.3,79,0.00,,,0.00,WUHU216HW,2013-01-09 11:28:00,
2013-01-09 06:33:00,25.9,20.3,30.38,WNW,293,2.2,4.3,79,0.00,,,0.00,WUHU216HW,2013-01-09 11:33:00,
2013-01-09 06:38:00,26.0,20.4,30.38,West,270,2.0,2.5,79,0.00,,,0.00,WUHU216HW,2013-01-09 11:38:00,
2013-01-09 06:43:00,26.0,20.4,30.37,WSW,248,1.1,2.5,79,0.00,,,0.00,WUHU216HW,2013-01-09 11:43:00,
2013-01-09 06:48:00,26.2,20.6,30.38,WNW,293,1.3,2.9,79,0.00,,,0.00,WUHU216HW,2013-01-09 11:48:00,
2013-01-09 06:53:00,26.4,20.8,30.38,WNW,293,3.1,3.1,79,0.00,,,0.00,WUHU216HW,2013-01-09 11:53:00,
2013-01-09 06:58:00,26.4,21.1,30.38,WNW,293,3.6,4.7,80,0.00,,,0.00,WUHU216HW,2013-01-09 11:58:00,
2013-01-09 07:03:00,26.7,21.0,30.39,WNW,293,3.4,4.7,79,0.00,,,0.00,WUHU216HW,2013-01-09 12:03:00,
2013-01-09 07:08:00,26.7,21.1,30.39,WNW,293,2.9,4.0,79,0.00,,,0.00,WUHU216HW,2013-01-09 12:08:00,
2013-01-09 07:13:00,26.9,21.3,30.39,WNW,293,1.8,4.5,79,0.00,,,0.00,WUHU216HW,2013-01-09 12:13:00,
2013-01-09 07:18:00,27.0,21.3,30.39,NNW,338,4.7,4.7,79,0.00,,,0.00,WUHU216HW,2013-01-09 12:18:00,
2013-01-09 07:23:00,27.2,21.3,30.39,NW,315,3.6,5.4,78,0.00,,,0.00,WUHU216HW,2013-01-09 12:23:00,
2013-01-09 07:28:00,27.5,21.6,30.40,WNW,293,3.1,5.4,78,0.00,,,0.00,WUHU216HW,2013-01-09 12:28:00,
2013-01-09 07:33:00,28.9,22.9,30.40,WNW,293,2.5,4.7,78,0.00,,,0.00,WUHU216HW,2013-01-09 12:33:00,
2013-01-09 07:38:00,30.0,23.7,30.40,West,270,3.4,4.5,77,0.00,,,0.00,WUHU216HW,2013-01-09 12:38:00,
2013-01-09 07:43:00,30.5,23.3,30.40,WNW,293,3.8,4.5,74,0.00,,,0.00,WUHU216HW,2013-01-09 12:43:00,
2013-01-09 07:48:00,30.8,23.5,30.40,West,270,3.1,4.0,74,0.00,,,0.00,WUHU216HW,2013-01-09 12:48:00,
2013-01-09 07:53:00,30.6,23.0,30.40,WNW,293,3.6,4.5,73,0.00,,,0.00,WUHU216HW,2013-01-09 12:53:00,
2013-01-09 07:58:00,30.6,22.7,30.39,NW,315,3.4,4.7,72,0.00,,,0.00,WUHU216HW,2013-01-09 12:58:00,
2013-01-09 08:03:00,31.4,23.8,30.39,West,270,3.4,4.7,73,0.00,,,0.00,WUHU216HW,2013-01-09 13:03:00,
2013-01-09 08:08:00,32.7,25.0,30.39,WNW,293,3.6,4.0,73,0.00,,,0.00,WUHU216HW,2013-01-09 13:08:00,
2013-01-09 08:13:00,33.4,25.8,30.38,WNW,293,2.5,4.0,73,0.00,,,0.00,WUHU216HW,2013-01-09 13:13:00,
2013-01-09 08:18:00,33.9,25.5,30.38,West,270,2.5,4.0,71,0.00,,,0.00,WUHU216HW,2013-01-09 13:18:00,
2013-01-09 08:23:00,33.7,25.3,30.38,West,270,2.5,4.7,71,0.00,,,0.00,WUHU216HW,2013-01-09 13:23:00,
2013-01-09 08:28:00,33.9,25.6,30.38,WNW,293,2.9,5.1,71,0.00,,,0.00,WUHU216HW,2013-01-09 13:28:00,
2013-01-09 08:34:00,33.9,25.6,30.38,NNW,338,3.4,5.1,71,0.00,,,0.00,WUHU216HW,2013-01-09 13:34:00,
2013-01-09 08:39:00,34.7,26.3,30.38,WNW,293,1.8,4.7,71,0.00,,,0.00,WUHU216HW,2013-01-09 13:39:00,
2013-01-09 08:44:00,35.2,26.1,30.38,NNW,338,3.4,5.4,69,0.00,,,0.00,WUHU216HW,2013-01-09 13:44:00,
2013-01-09 08:49:00,35.4,26.3,30.38,North,0,3.4,5.4,69,0.00,,,0.00,WUHU216HW,2013-01-09 13:49:00,
2013-01-09 08:54:00,35.5,25.7,30.38,WNW,293,2.2,4.3,67,0.00,,,0.00,WUHU216HW,2013-01-09 13:54:00,
2013-01-09 08:59:00,34.6,24.5,30.38,WSW,248,2.0,4.3,66,0.00,,,0.00,WUHU216HW,2013-01-09 13:59:00,
2013-01-09 09:04:00,34.6,25.2,30.38,NW,315,0.9,4.0,68,0.00,,,0.00,WUHU216HW,2013-01-09 14:04:00,
2013-01-09 09:09:00,35.0,26.0,30.37,WNW,293,1.1,3.4,69,0.00,,,0.00,WUHU216HW,2013-01-09 14:09:00,
2013-01-09 09:14:00,34.9,25.1,30.37,SW,225,2.9,3.4,67,0.00,,,0.00,WUHU216HW,2013-01-09 14:14:00,
2013-01-09 09:19:00,34.0,24.3,30.38,West,270,2.0,3.8,67,0.00,,,0.00,WUHU216HW,2013-01-09 14:19:00,
2013-01-09 09:24:00,33.8,24.8,30.38,NW,315,1.6,4.5,69,0.00,,,0.00,WUHU216HW,2013-01-09 14:24:00,
2013-01-09 09:29:00,33.8,24.8,30.38,WNW,293,2.0,4.5,69,0.00,,,0.00,WUHU216HW,2013-01-09 14:29:00,
2013-01-09 09:34:00,33.9,24.8,30.37,WNW,293,2.0,3.8,69,0.00,,,0.00,WUHU216HW,2013-01-09 14:34:00,
2013-01-09 09:39:00,33.9,24.9,30.37,WNW,293,2.5,4.3,69,0.00,,,0.00,WUHU216HW,2013-01-09 14:39:00,
2013-01-09 09:44:00,33.7,24.7,30.37,WNW,293,2.7,4.7,69,0.00,,,0.00,WUHU216HW,2013-01-09 14:44:00,
2013-01-09 09:49:00,33.7,25.1,30.37,NW,315,3.4,4.7,70,0.00,,,0.00,WUHU216HW,2013-01-09 14:49:00,
2013-01-09 09:54:00,34.0,25.3,30.37,WNW,293,2.2,5.1,70,0.00,,,0.00,WUHU216HW,2013-01-09 14:54:00,
2013-01-09 09:59:00,34.0,25.3,30.36,West,270,1.8,5.1,70,0.00,,,0.00,WUHU216HW,2013-01-09 14:59:00,
2013-01-09 10:04:00,34.6,25.9,30.35,NNW,338,1.1,4.7,70,0.00,,,0.00,WUHU216HW,2013-01-09 15:04:00,
2013-01-09 10:09:00,34.7,26.0,30.35,NNW,338,1.6,4.5,70,0.00,,,0.00,WUHU216HW,2013-01-09 15:09:00,
2013-01-09 10:14:00,34.9,26.2,30.35,WNW,293,3.6,5.1,70,0.00,,,0.00,WUHU216HW,2013-01-09 15:14:00,
2013-01-09 10:19:00,35.2,26.1,30.35,NW,315,4.5,5.1,69,0.00,,,0.00,WUHU216HW,2013-01-09 15:19:00,
2013-01-09 10:24:00,35.6,26.5,30.34,WNW,293,2.5,4.7,69,0.00,,,0.00,WUHU216HW,2013-01-09 15:24:00,
2013-01-09 10:29:00,35.6,26.5,30.34,West,270,1.1,4.5,69,0.00,,,0.00,WUHU216HW,2013-01-09 15:29:00,
2013-01-09 10:34:00,35.6,26.2,30.34,West,270,2.0,3.4,68,0.00,,,0.00,WUHU216HW,2013-01-09 15:34:00,
2013-01-09 10:39:00,35.7,26.3,30.33,WSW,248,1.1,2.7,68,0.00,,,0.00,WUHU216HW,2013-01-09 15:39:00,
2013-01-09 10:44:00,36.1,26.7,30.33,WSW,248,0.7,2.5,68,0.00,,,0.00,WUHU216HW,2013-01-09 15:44:00,
2013-01-09 10:49:00,36.2,26.7,30.33,SW,225,1.1,2.5,68,0.00,,,0.00,WUHU216HW,2013-01-09 15:49:00,
2013-01-09 10:54:00,36.2,26.7,30.33,WSW,248,0.7,2.9,68,0.00,,,0.00,WUHU216HW,2013-01-09 15:54:00,
2013-01-09 10:59:00,36.9,27.4,30.32,WSW,248,1.6,2.9,68,0.00,,,0.00,WUHU216HW,2013-01-09 15:59:00,
2013-01-09 11:04:00,37.3,27.4,30.32,WSW,248,1.6,2.7,67,0.00,,,0.00,WUHU216HW,2013-01-09 16:04:00,
2013-01-09 11:09:00,38.0,27.4,30.33,WSW,248,2.2,2.7,65,0.00,,,0.00,WUHU216HW,2013-01-09 16:09:00,
2013-01-09 11:14:00,38.2,26.8,30.32,West,270,3.6,4.0,63,0.00,,,0.00,WUHU216HW,2013-01-09 16:14:00,
2013-01-09 11:19:00,38.4,27.0,30.31,WNW,293,1.6,4.0,63,0.00,,,0.00,WUHU216HW,2013-01-09 16:19:00,
2013-01-09 11:24:00,38.7,27.3,30.31,WNW,293,1.1,3.6,63,0.00,,,0.00,WUHU216HW,2013-01-09 16:24:00,
2013-01-09 11:29:00,39.6,28.2,30.30,NW,315,1.8,2.7,63,0.00,,,0.00,WUHU216HW,2013-01-09 16:29:00,
2013-01-09 11:34:00,40.3,28.7,30.29,West,270,1.1,2.7,63,0.00,,,0.00,WUHU216HW,2013-01-09 16:34:00,
2013-01-09 11:39:00,40.8,28.4,30.29,WNW,293,2.0,2.5,61,0.00,,,0.00,WUHU216HW,2013-01-09 16:39:00,
2013-01-09 11:44:00,41.5,29.5,30.27,South,180,1.3,2.0,62,0.00,,,0.00,WUHU216HW,2013-01-09 16:44:00,
2013-01-09 11:49:00,41.7,29.7,30.26,East,90,1.1,2.0,62,0.00,,,0.00,WUHU216HW,2013-01-09 16:49:00,
2013-01-09 11:54:00,42.1,30.1,30.26,SW,225,1.8,2.5,62,0.00,,,0.00,WUHU216HW,2013-01-09 16:54:00,
2013-01-09 11:59:00,41.9,29.5,30.25,South,180,0.4,2.5,61,0.00,,,0.00,WUHU216HW,2013-01-09 16:59:00,
2013-01-09 12:04:00,41.9,28.2,30.24,SSE,158,1.8,2.9,58,0.00,,,0.00,WUHU216HW,2013-01-09 17:04:00,
2013-01-09 12:09:00,41.7,27.6,30.24,SSE,158,2.0,2.9,57,0.00,,,0.00,WUHU216HW,2013-01-09 17:09:00,
2013-01-09 12:14:00,41.5,28.3,30.24,SSE,158,1.3,3.4,59,0.00,,,0.00,WUHU216HW,2013-01-09 17:14:00,
2013-01-09 12:19:00,41.3,28.5,30.23,SSE,158,2.5,3.6,60,0.00,,,0.00,WUHU216HW,2013-01-09 17:19:00,
2013-01-09 12:24:00,40.8,28.9,30.23,SE,135,1.3,3.6,62,0.00,,,0.00,WUHU216HW,2013-01-09 17:24:00,
2013-01-09 12:29:00,40.8,29.3,30.21,ESE,113,1.8,3.4,63,0.00,,,0.00,WUHU216HW,2013-01-09 17:29:00,
2013-01-09 12:34:00,40.8,29.3,30.20,SSE,158,2.2,3.4,63,0.00,,,0.00,WUHU216HW,2013-01-09 17:34:00,
2013-01-09 12:39:00,40.8,29.3,30.19,SE,135,2.7,3.4,63,0.00,,,0.00,WUHU216HW,2013-01-09 17:39:00,
2013-01-09 12:44:00,40.6,29.1,30.19,SE,135,2.9,3.4,63,0.00,,,0.00,WUHU216HW,2013-01-09 17:44:00,
2013-01-09 12:49:00,40.4,28.5,30.19,SE,135,2.2,4.0,62,0.00,,,0.00,WUHU216HW,2013-01-09 17:49:00,
2013-01-09 12:54:00,40.3,28.8,30.20,ESE,113,1.3,4.0,63,0.00,,,0.00,WUHU216HW,2013-01-09 17:54:00,
2013-01-09 12:59:00,40.4,28.9,30.19,SE,135,1.3,3.4,63,0.00,,,0.00,WUHU216HW,2013-01-09 17:59:00,
2013-01-09 13:04:00,40.3,29.9,30.18,SE,135,3.1,4.0,66,0.00,,,0.00,WUHU216HW,2013-01-09 18:04:00,
2013-01-09 13:09:00,40.1,30.1,30.18,SSE,158,3.1,4.0,67,0.00,,,0.00,WUHU216HW,2013-01-09 18:09:00,
2013-01-09 13:14:00,40.1,30.1,30.17,ESE,113,4.7,4.9,67,0.00,,,0.00,WUHU216HW,2013-01-09 18:14:00,
2013-01-09 13:19:00,39.7,29.7,30.16,ESE,113,1.8,6.0,67,0.00,,,0.00,WUHU216HW,2013-01-09 18:19:00,
2013-01-09 13:24:00,39.5,29.5,30.16,SW,225,3.1,6.0,67,0.00,,,0.00,WUHU216HW,2013-01-09 18:24:00,
2013-01-09 13:29:00,39.6,30.0,30.16,SE,135,2.5,5.1,68,0.00,,,0.00,WUHU216HW,2013-01-09 18:29:00,
2013-01-09 13:34:00,39.6,29.7,30.16,SSE,158,1.8,4.7,67,0.00,,,0.00,WUHU216HW,2013-01-09 18:34:00,
2013-01-09 13:39:00,39.8,30.2,30.17,East,90,1.8,4.9,68,0.00,,,0.00,WUHU216HW,2013-01-09 18:39:00,
2013-01-09 13:41:00,40.0,30.4,30.17,SSE,158,3.4,4.9,68,0.00,,,0.00,WUHU216HW,2013-01-09 18:41:00,
2013-01-09 13:44:00,40.0,30.0,30.18,WSW,248,1.8,4.9,67,0.00,,,0.00,WUHU216HW,2013-01-09 18:44:00,
2013-01-09 13:45:00,40.0,30.0,30.18,SSW,203,1.8,4.9,67,0.00,,,0.00,WUHU216HW,2013-01-09 18:45:00,
2013-01-09 13:48:00,40.2,30.2,30.18,SSW,203,3.1,4.5,67,0.00,,,0.00,WUHU216HW,2013-01-09 18:48:00,
2013-01-09 13:49:00,40.2,30.2,30.18,South,180,3.6,4.5,67,0.00,,,0.00,WUHU216HW,2013-01-09 18:49:00,
2013-01-09 13:54:00,40.2,29.5,30.18,South,180,2.5,4.9,65,0.00,,,0.00,WUHU216HW,2013-01-09 18:54:00,
2013-01-09 13:59:00,40.2,29.8,30.18,WSW,248,2.5,4.9,66,0.00,,,0.00,WUHU216HW,2013-01-09 18:59:00,
2013-01-09 14:04:00,40.2,29.8,30.17,NW,315,1.8,4.3,66,0.00,,,0.00,WUHU216HW,2013-01-09 19:04:00,
2013-01-09 14:09:00,40.3,29.9,30.18,SSE,158,2.5,3.8,66,0.00,,,0.00,WUHU216HW,2013-01-09 19:09:00,
2013-01-09 14:14:00,40.2,29.9,30.17,SE,135,0.7,2.9,66,0.00,,,0.00,WUHU216HW,2013-01-09 19:14:00,
2013-01-09 14:19:00,40.4,29.3,30.16,SSE,158,1.6,2.9,64,0.00,,,0.00,WUHU216HW,2013-01-09 19:19:00,
2013-01-09 14:24:00,40.6,29.1,30.16,SW,225,2.5,4.0,63,0.00,,,0.00,WUHU216HW,2013-01-09 19:24:00,
2013-01-09 14:29:00,40.8,28.0,30.16,WSW,248,3.1,4.5,60,0.00,,,0.00,WUHU216HW,2013-01-09 19:29:00,
2013-01-09 14:34:00,40.8,28.4,30.16,SSW,203,2.5,4.5,61,0.00,,,0.00,WUHU216HW,2013-01-09 19:34:00,
2013-01-09 14:39:00,40.8,27.6,30.15,SW,225,1.3,4.0,59,0.00,,,0.00,WUHU216HW,2013-01-09 19:39:00,
2013-01-09 14:44:00,40.7,28.0,30.14,South,180,1.6,3.6,60,0.00,,,0.00,WUHU216HW,2013-01-09 19:44:00,
2013-01-09 14:49:00,40.7,28.0,30.14,SE,135,1.3,3.6,60,0.00,,,0.00,WUHU216HW,2013-01-09 19:49:00,
2013-01-09 14:54:00,40.5,27.8,30.14,South,180,1.3,2.0,60,0.00,,,0.00,WUHU216HW,2013-01-09 19:54:00,
2013-01-09 14:59:00,40.5,27.7,30.13,South,180,2.5,2.5,60,0.00,,,0.00,WUHU216HW,2013-01-09 19:59:00,
2013-01-09 15:04:00,40.5,28.5,30.13,South,180,2.2,3.1,62,0.00,,,0.00,WUHU216HW,2013-01-09 20:04:00,
2013-01-09 15:09:00,40.4,28.9,30.13,SSE,158,3.4,3.4,63,0.00,,,0.00,WUHU216HW,2013-01-09 20:09:00,
2013-01-09 15:14:00,40.2,28.7,30.13,SE,135,1.8,3.4,63,0.00,,,0.00,WUHU216HW,2013-01-09 20:14:00,
2013-01-09 15:19:00,40.4,28.9,30.12,South,180,2.7,3.4,63,0.00,,,0.00,WUHU216HW,2013-01-09 20:19:00,
2013-01-09 15:24:00,40.4,28.9,30.11,SSE,158,1.3,3.1,63,0.00,,,0.00,WUHU216HW,2013-01-09 20:24:00,
2013-01-09 15:29:00,40.2,29.4,30.11,SSE,158,1.8,3.8,65,0.00,,,0.00,WUHU216HW,2013-01-09 20:29:00,
2013-01-09 15:34:00,40.1,29.8,30.11,SE,135,2.7,3.8,66,0.00,,,0.00,WUHU216HW,2013-01-09 20:34:00,
2013-01-09 15:39:00,39.8,29.4,30.11,SSE,158,4.3,4.5,66,0.00,,,0.00,WUHU216HW,2013-01-09 20:39:00,
2013-01-09 15:44:00,39.6,29.2,30.11,SSE,158,1.1,4.5,66,0.00,,,0.00,WUHU216HW,2013-01-09 20:44:00,
2013-01-09 15:49:00,39.6,29.6,30.10,South,180,4.0,5.8,67,0.00,,,0.00,WUHU216HW,2013-01-09 20:49:00,
2013-01-09 15:54:00,39.3,29.4,30.10,South,180,2.5,5.8,67,0.00,,,0.00,WUHU216HW,2013-01-09 20:54:00,
2013-01-09 15:59:00,39.1,28.8,30.08,SSE,158,6.0,7.2,66,0.00,,,0.00,WUHU216HW,2013-01-09 20:59:00,
2013-01-09 16:04:00,39.3,30.0,30.07,South,180,6.7,7.2,69,0.00,,,0.00,WUHU216HW,2013-01-09 21:04:00,
2013-01-09 16:09:00,39.4,30.9,30.05,SSE,158,4.5,8.5,71,0.00,,,0.00,WUHU216HW,2013-01-09 21:09:00,
2013-01-09 16:14:00,39.6,31.4,30.05,SE,135,3.8,8.7,72,0.00,,,0.00,WUHU216HW,2013-01-09 21:14:00,
2013-01-09 16:19:00,39.6,31.4,30.04,SE,135,8.1,9.8,72,0.00,,,0.00,WUHU216HW,2013-01-09 21:19:00,
2013-01-09 16:24:00,39.7,31.8,30.03,WSW,248,6.5,9.8,73,0.00,,,0.00,WUHU216HW,2013-01-09 21:24:00,
2013-01-09 16:29:00,39.8,32.3,30.02,SE,135,4.7,9.4,74,0.00,,,0.00,WUHU216HW,2013-01-09 21:29:00,
2013-01-09 16:34:00,39.8,32.2,30.03,ESE,113,6.5,8.5,74,0.00,,,0.00,WUHU216HW,2013-01-09 21:34:00,
2013-01-09 16:39:00,40.0,32.4,30.03,South,180,5.1,6.7,74,0.00,,,0.00,WUHU216HW,2013-01-09 21:39:00,
2013-01-09 16:44:00,39.9,32.4,30.03,South,180,3.6,6.5,74,0.00,,,0.00,WUHU216HW,2013-01-09 21:44:00,
2013-01-09 16:49:00,39.7,32.2,30.04,SSW,203,1.8,5.8,74,0.00,,,0.00,WUHU216HW,2013-01-09 21:49:00,
2013-01-09 16:54:00,39.4,31.2,30.03,South,180,4.5,5.4,72,0.00,,,0.00,WUHU216HW,2013-01-09 21:54:00,
2013-01-09 16:59:00,38.7,30.6,30.02,South,180,3.8,4.9,72,0.00,,,0.00,WUHU216HW,2013-01-09 21:59:00,
2013-01-09 17:04:00,38.5,30.3,30.01,ESE,113,4.7,6.3,72,0.00,,,0.00,WUHU216HW,2013-01-09 22:04:00,
2013-01-09 17:09:00,38.5,30.6,30.00,SSW,203,4.5,6.3,73,0.00,,,0.00,WUHU216HW,2013-01-09 22:09:00,
2013-01-09 17:14:00,38.6,30.5,30.01,SSE,158,2.0,5.1,72,0.00,,,0.00,WUHU216HW,2013-01-09 22:14:00,
2013-01-09 17:19:00,38.6,30.1,30.01,SSW,203,1.8,4.5,71,0.00,,,0.00,WUHU216HW,2013-01-09 22:19:00,
2013-01-09 17:24:00,38.3,29.8,30.00,South,180,3.1,3.8,71,0.00,,,0.00,WUHU216HW,2013-01-09 22:24:00,
2013-01-09 17:29:00,38.0,29.5,29.99,SSW,203,2.7,3.4,71,0.00,,,0.00,WUHU216HW,2013-01-09 22:29:00,
2013-01-09 17:34:00,38.0,29.9,29.99,SSW,203,1.6,3.1,72,0.00,,,0.00,WUHU216HW,2013-01-09 22:34:00,
2013-01-09 17:39:00,38.0,29.5,29.98,SSW,203,2.2,3.4,71,0.00,,,0.00,WUHU216HW,2013-01-09 22:39:00,
2013-01-09 17:44:00,38.1,29.6,29.98,SW,225,2.9,3.8,71,0.00,,,0.00,WUHU216HW,2013-01-09 22:44:00,
2013-01-09 17:49:00,38.2,29.7,29.98,South,180,2.7,4.5,71,0.00,,,0.00,WUHU216HW,2013-01-09 22:49:00,
2013-01-09 17:54:00,38.2,29.7,29.98,SSW,203,2.2,4.7,71,0.00,,,0.00,WUHU216HW,2013-01-09 22:54:00,
2013-01-09 17:59:00,38.3,29.5,29.98,South,180,3.8,4.7,70,0.00,,,0.00,WUHU216HW,2013-01-09 22:59:00,
2013-01-09 18:04:00,38.5,29.6,29.97,SSW,203,4.5,4.5,70,0.00,,,0.00,WUHU216HW,2013-01-09 23:04:00,
2013-01-09 18:09:00,38.7,29.8,29.97,South,180,2.7,4.5,70,0.00,,,0.00,WUHU216HW,2013-01-09 23:09:00,
2013-01-09 18:14:00,38.8,29.6,29.97,South,180,2.5,5.4,69,0.00,,,0.00,WUHU216HW,2013-01-09 23:14:00,
2013-01-09 18:19:00,38.8,29.6,29.97,WSW,248,3.1,5.4,69,0.00,,,0.00,WUHU216HW,2013-01-09 23:19:00,
2013-01-09 18:24:00,38.6,29.0,29.97,South,180,2.9,4.7,68,0.00,,,0.00,WUHU216HW,2013-01-09 23:24:00,
2013-01-09 18:29:00,38.5,29.0,29.97,WSW,248,5.6,5.6,68,0.00,,,0.00,WUHU216HW,2013-01-09 23:29:00,
2013-01-09 18:34:00,38.5,29.3,29.97,SSE,158,4.5,5.6,69,0.00,,,0.00,WUHU216HW,2013-01-09 23:34:00,
2013-01-09 18:39:00,38.5,29.2,29.96,NW,315,5.4,6.0,69,0.00,,,0.00,WUHU216HW,2013-01-09 23:39:00,
2013-01-09 18:44:00,38.6,29.4,29.97,SW,225,3.8,7.4,69,0.00,,,0.00,WUHU216HW,2013-01-09 23:44:00,
2013-01-09 18:49:00,38.6,29.4,29.98,WSW,248,4.7,7.4,69,0.00,,,0.00,WUHU216HW,2013-01-09 23:49:00,
2013-01-09 18:54:00,38.8,30.0,29.98,West,270,7.2,11.4,70,0.00,,,0.00,WUHU216HW,2013-01-09 23:54:00,
2013-01-09 18:59:00,39.0,29.8,29.97,South,180,3.4,11.4,69,0.00,,,0.00,WUHU216HW,2013-01-09 23:59:00,
2013-01-09 19:04:00,39.0,29.8,29.97,WSW,248,6.3,7.4,69,0.00,,,0.00,WUHU216HW,2013-01-10 00:04:00,
2013-01-09 19:09:00,39.2,30.3,29.97,WNW,293,5.4,9.6,70,0.00,,,0.00,WUHU216HW,2013-01-10 00:09:00,
2013-01-09 19:14:00,39.2,30.3,29.96,WSW,248,7.6,9.6,70,0.00,,,0.00,WUHU216HW,2013-01-10 00:14:00,
2013-01-09 19:19:00,39.5,30.6,29.96,WSW,248,5.8,8.9,70,0.00,,,0.00,WUHU216HW,2013-01-10 00:19:00,
2013-01-09 19:24:00,39.5,30.6,29.96,West,270,3.1,9.2,70,0.00,,,0.00,WUHU216HW,2013-01-10 00:24:00,
2013-01-09 19:29:00,39.5,30.9,29.95,WNW,293,4.5,11.2,71,0.00,,,0.00,WUHU216HW,2013-01-10 00:29:00,
2013-01-09 19:34:00,39.5,30.9,29.96,SW,225,6.7,11.2,71,0.00,,,0.00,WUHU216HW,2013-01-10 00:34:00,
2013-01-09 19:39:00,39.5,30.9,29.95,SSW,203,8.5,10.3,71,0.00,,,0.00,WUHU216HW,2013-01-10 00:39:00,
2013-01-09 19:44:00,39.5,31.3,29.95,West,270,5.6,10.3,72,0.00,,,0.00,WUHU216HW,2013-01-10 00:44:00,
2013-01-09 19:49:00,39.7,31.5,29.95,West,270,10.3,10.3,72,0.00,,,0.00,WUHU216HW,2013-01-10 00:49:00,
2013-01-09 19:54:00,39.7,31.5,29.95,SW,225,10.5,12.8,72,0.00,,,0.00,WUHU216HW,2013-01-10 00:54:00,
2013-01-09 19:59:00,40.1,31.9,29.96,SW,225,10.5,12.8,72,0.00,,,0.00,WUHU216HW,2013-01-10 00:59:00,
2013-01-09 20:04:00,40.1,31.5,29.95,West,270,8.3,11.0,71,0.00,,,0.00,WUHU216HW,2013-01-10 01:04:00,
2013-01-09 20:09:00,40.1,31.5,29.96,WSW,248,7.6,12.8,71,0.00,,,0.00,WUHU216HW,2013-01-10 01:09:00,
2013-01-09 20:14:00,40.1,31.9,29.96,WNW,293,11.2,12.8,72,0.00,,,0.00,WUHU216HW,2013-01-10 01:14:00,
2013-01-09 20:19:00,40.4,31.8,29.96,WSW,248,6.9,11.9,71,0.00,,,0.00,WUHU216HW,2013-01-10 01:19:00,
2013-01-09 20:24:00,40.3,31.7,29.95,WSW,248,9.6,11.9,71,0.00,,,0.00,WUHU216HW,2013-01-10 01:24:00,
2013-01-09 20:29:00,40.3,31.7,29.95,West,270,9.6,12.1,71,0.00,,,0.00,WUHU216HW,2013-01-10 01:29:00,
2013-01-09 20:34:00,40.1,31.9,29.95,WSW,248,5.4,13.4,72,0.00,,,0.00,WUHU216HW,2013-01-10 01:34:00,
2013-01-09 20:39:00,39.9,31.7,29.95,West,270,8.7,13.4,72,0.00,,,0.00,WUHU216HW,2013-01-10 01:39:00,
2013-01-09 20:44:00,39.9,31.7,29.95,West,270,8.3,9.8,72,0.00,,,0.00,WUHU216HW,2013-01-10 01:44:00,
2013-01-09 20:49:00,39.9,31.7,29.95,WNW,293,6.3,9.4,72,0.00,,,0.00,WUHU216HW,2013-01-10 01:49:00,
2013-01-09 20:54:00,39.9,32.0,29.95,WSW,248,9.8,9.8,73,0.00,,,0.00,WUHU216HW,2013-01-10 01:54:00,
2013-01-09 20:59:00,39.7,31.8,29.95,NW,315,10.5,10.5,73,0.00,,,0.00,WUHU216HW,2013-01-10 01:59:00,
2013-01-09 21:04:00,39.9,32.0,29.95,SW,225,8.5,10.5,73,0.00,,,0.00,WUHU216HW,2013-01-10 02:04:00,
2013-01-09 21:09:00,39.9,32.0,29.95,West,270,7.2,12.1,73,0.00,,,0.00,WUHU216HW,2013-01-10 02:09:00,
2013-01-09 21:14:00,39.9,32.0,29.96,SW,225,9.4,12.1,73,0.00,,,0.00,WUHU216HW,2013-01-10 02:14:00,
2013-01-09 21:19:00,39.9,32.0,29.96,NW,315,8.1,11.6,73,0.00,,,0.00,WUHU216HW,2013-01-10 02:19:00,
2013-01-09 21:24:00,39.9,31.7,29.96,WNW,293,7.4,11.0,72,0.00,,,0.00,WUHU216HW,2013-01-10 02:24:00,
2013-01-09 21:29:00,40.1,31.9,29.96,WSW,248,8.5,11.0,72,0.00,,,0.00,WUHU216HW,2013-01-10 02:29:00,
2013-01-09 21:34:00,40.1,31.5,29.96,West,270,5.6,10.3,71,0.00,,,0.00,WUHU216HW,2013-01-10 02:34:00,
2013-01-09 21:39:00,40.3,31.7,29.96,WSW,248,3.4,11.4,71,0.00,,,0.00,WUHU216HW,2013-01-10 02:39:00,
2013-01-09 21:44:00,40.3,31.7,29.96,WSW,248,6.9,12.1,71,0.00,,,0.00,WUHU216HW,2013-01-10 02:44:00,
2013-01-09 21:49:00,40.3,31.7,29.96,WNW,293,5.1,12.1,71,0.00,,,0.00,WUHU216HW,2013-01-10 02:49:00,
2013-01-09 21:54:00,40.4,31.5,29.96,WNW,293,8.3,13.2,70,0.00,,,0.00,WUHU216HW,2013-01-10 02:54:00,
2013-01-09 21:59:00,40.4,31.5,29.96,WSW,248,7.6,13.2,70,0.00,,,0.00,WUHU216HW,2013-01-10 02:59:00,
2013-01-09 22:04:00,40.4,31.8,29.96,WNW,293,9.2,12.8,71,0.00,,,0.00,WUHU216HW,2013-01-10 03:04:00,
2013-01-09 22:09:00,40.6,31.7,29.97,SW,225,12.9,13.0,70,0.00,,,0.00,WUHU216HW,2013-01-10 03:09:00,
2013-01-09 22:14:00,40.8,31.5,29.96,WSW,248,7.8,13.0,69,0.00,,,0.00,WUHU216HW,2013-01-10 03:14:00,
2013-01-09 22:19:00,40.8,31.5,29.96,NW,315,9.6,13.0,69,0.00,,,0.00,WUHU216HW,2013-01-10 03:19:00,
2013-01-09 22:24:00,40.8,31.5,29.96,West,270,8.9,14.3,69,0.00,,,0.00,WUHU216HW,2013-01-10 03:24:00,
2013-01-09 22:29:00,41.0,31.7,29.96,West,270,9.4,14.3,69,0.00,,,0.00,WUHU216HW,2013-01-10 03:29:00,
2013-01-09 22:34:00,41.0,31.3,29.97,NW,315,8.3,13.4,68,0.00,,,0.00,WUHU216HW,2013-01-10 03:34:00,
2013-01-09 22:39:00,41.3,30.9,29.97,West,270,10.5,13.2,66,0.00,,,0.00,WUHU216HW,2013-01-10 03:39:00,
2013-01-09 22:44:00,41.5,30.7,29.97,WSW,248,11.4,13.2,65,0.00,,,0.00,WUHU216HW,2013-01-10 03:44:00,
2013-01-09 22:49:00,41.9,30.7,29.97,NW,315,10.1,15.7,64,0.00,,,0.00,WUHU216HW,2013-01-10 03:49:00,
2013-01-09 22:54:00,41.9,30.7,29.97,West,270,14.2,15.7,64,0.00,,,0.00,WUHU216HW,2013-01-10 03:54:00,
2013-01-09 22:59:00,41.7,30.5,29.97,WSW,248,8.5,14.3,64,0.00,,,0.00,WUHU216HW,2013-01-10 03:59:00,
2013-01-09 23:04:00,41.5,31.1,29.97,West,270,6.5,14.3,66,0.00,,,0.00,WUHU216HW,2013-01-10 04:04:00,
2013-01-09 23:09:00,41.3,30.5,29.97,West,270,11.0,14.3,65,0.00,,,0.00,WUHU216HW,2013-01-10 04:09:00,
2013-01-09 23:14:00,41.3,30.5,29.97,WSW,248,9.4,11.4,65,0.00,,,0.00,WUHU216HW,2013-01-10 04:14:00,
2013-01-09 23:19:00,41.3,30.5,29.98,West,270,7.2,12.3,65,0.00,,,0.00,WUHU216HW,2013-01-10 04:19:00,
2013-01-09 23:24:00,41.2,30.4,29.98,WSW,248,6.9,12.3,65,0.00,,,0.00,WUHU216HW,2013-01-10 04:24:00,
2013-01-09 23:29:00,41.2,30.0,29.97,West,270,10.3,14.3,64,0.00,,,0.00,WUHU216HW,2013-01-10 04:29:00,
2013-01-09 23:34:00,41.2,30.0,29.98,WNW,293,13.8,14.3,64,0.00,,,0.00,WUHU216HW,2013-01-10 04:34:00,
2013-01-09 23:39:00,41.2,30.0,29.98,WSW,248,12.1,13.9,64,0.00,,,0.00,WUHU216HW,2013-01-10 04:39:00,
2013-01-09 23:44:00,41.2,30.0,29.98,WNW,293,10.1,13.4,64,0.00,,,0.00,WUHU216HW,2013-01-10 04:44:00,
2013-01-09 23:49:00,41.2,29.6,29.98,WNW,293,8.1,13.0,63,0.00,,,0.00,WUHU216HW,2013-01-10 04:49:00,
2013-01-09 23:54:00,41.2,29.6,29.97,West,270,8.1,11.4,63,0.00,,,0.00,WUHU216HW,2013-01-10 04:54:00,
2013-01-09 23:59:00,40.8,29.3,29.98,WNW,293,9.8,11.6,63,0.00,,,0.00,WUHU216HW,2013-01-10 04:59:00,